Time;durP1;ratioP1;P1;durP2;ratioP2;P2;SDS_P1;SDS_P2;PMS_P1;PMS_P2;Temp;Humidity;BMP_temperature;BMP_pressure;BME280_temperature;BME280_humidity;BME280_pressure;Samples;Min_cycle;Max_cycle;Signal;HPM_P1;HPM_P2
2023/03/19 00:01:27;;;;;;;4.57;3.75;;;;;;;9.05;100.00;100995.72;4927866;28;20126;-73
2023/03/19 00:03:52;;;;;;;4.68;3.30;;;;;;;9.06;100.00;100996.59;4932027;28;20098;-73
2023/03/19 00:06:18;;;;;;;5.57;4.10;;;;;;;9.04;100.00;100996.66;4944663;28;20608;-74
2023/03/19 00:08:44;;;;;;;5.03;3.58;;;;;;;9.05;100.00;100997.53;4941383;28;20051;-73
2023/03/19 00:11:11;;;;;;;4.30;3.67;;;;;;;9.03;100.00;101000.22;4944635;28;20039;-72
2023/03/19 00:13:37;;;;;;;3.70;2.90;;;;;;;9.03;100.00;100999.34;4927242;28;20048;-73
2023/03/19 00:16:04;;;;;;;4.03;2.95;;;;;;;9.03;100.00;100999.34;4941200;28;20042;-72
2023/03/19 00:18:29;;;;;;;3.83;2.95;;;;;;;9.01;100.00;100994.13;4940358;28;20275;-73
2023/03/19 00:20:55;;;;;;;5.72;2.92;;;;;;;8.99;100.00;100990.66;4944380;28;20074;-73
2023/03/19 00:23:21;;;;;;;6.32;3.10;;;;;;;8.98;100.00;101002.16;4943647;28;20811;-73
2023/03/19 00:25:47;;;;;;;3.08;2.63;;;;;;;8.97;100.00;100992.50;4916589;28;20470;-73
2023/03/19 00:28:12;;;;;;;3.63;2.78;;;;;;;8.96;100.00;100993.44;4943853;28;20172;-73
2023/03/19 00:30:38;;;;;;;4.82;2.67;;;;;;;8.94;100.00;100993.47;4942403;28;20047;-73
2023/03/19 00:33:03;;;;;;;4.00;2.90;;;;;;;8.92;100.00;100994.44;4943322;28;20054;-72
2023/03/19 00:35:29;;;;;;;4.25;2.40;;;;;;;8.90;100.00;100998.94;4943365;28;20043;-73
2023/03/19 00:37:58;;;;;;;3.03;2.47;;;;;;;8.87;100.00;100994.63;4928374;28;20146;-73
2023/03/19 00:40:24;;;;;;;5.95;2.55;;;;;;;8.87;100.00;100997.25;4930505;28;20054;-73
2023/03/19 00:42:49;;;;;;;4.25;2.60;;;;;;;8.85;100.00;100992.94;4943998;28;20502;-73
2023/03/19 00:45:15;;;;;;;4.28;2.60;;;;;;;8.83;100.00;101001.78;4943372;28;20058;-73
2023/03/19 00:47:41;;;;;;;3.08;2.42;;;;;;;8.83;100.00;101007.06;4931331;28;20112;-71
2023/03/19 00:50:07;;;;;;;3.90;2.72;;;;;;;8.81;100.00;101003.63;4943629;28;20156;-72
2023/03/19 00:52:32;;;;;;;4.80;2.95;;;;;;;8.82;100.00;101001.84;4947673;28;20097;-72
2023/03/19 00:54:58;;;;;;;4.72;3.08;;;;;;;8.79;100.00;101005.47;4941620;28;20110;-72
2023/03/19 00:57:24;;;;;;;4.65;3.40;;;;;;;8.78;100.00;101002.88;4926554;28;20051;-72
2023/03/19 00:59:49;;;;;;;4.50;3.45;;;;;;;8.77;100.00;101009.94;4942146;28;20058;-72
2023/03/19 01:02:16;;;;;;;5.15;3.50;;;;;;;8.77;100.00;101001.16;4941066;28;20042;-73
2023/03/19 01:04:41;;;;;;;3.58;3.28;;;;;;;8.76;100.00;101005.56;4926392;28;20043;-73
2023/03/19 01:07:07;;;;;;;4.53;3.17;;;;;;;8.76;100.00;101010.84;4942541;28;20517;-73
2023/03/19 01:09:34;;;;;;;4.38;2.95;;;;;;;8.77;100.00;101002.00;4942990;28;20148;-73
2023/03/19 01:12:03;;;;;;;4.43;2.80;;;;;;;8.78;100.00;101014.28;4940430;28;20047;-72
2023/03/19 01:14:30;;;;;;;3.83;2.60;;;;;;;8.79;100.00;101010.75;4942390;28;20058;-73
2023/03/19 01:16:56;;;;;;;6.40;2.67;;;;;;;8.80;100.00;101011.59;4943614;28;20666;-73
2023/03/19 01:19:21;;;;;;;4.13;2.92;;;;;;;8.80;100.00;101012.47;4927775;28;20109;-73
2023/03/19 01:21:48;;;;;;;6.20;3.17;;;;;;;8.81;100.00;101006.28;4916053;28;20542;-72
2023/03/19 01:24:15;;;;;;;4.25;2.95;;;;;;;8.82;100.00;101005.34;4926376;28;20063;-72
2023/03/19 01:26:41;;;;;;;4.82;3.20;;;;;;;8.82;100.00;101005.34;4945289;28;20805;-73
2023/03/19 01:29:07;;;;;;;3.67;2.70;;;;;;;8.81;100.00;101008.91;4941899;28;20067;-73
2023/03/19 01:31:33;;;;;;;4.72;3.15;;;;;;;8.83;100.00;101008.88;4929505;28;20059;-73
2023/03/19 01:33:59;;;;;;;4.82;3.70;;;;;;;8.81;100.00;101006.28;4934778;28;20064;-73
2023/03/19 01:36:35;;;;;;;6.85;3.58;;;;;;;8.81;100.00;101003.63;4934187;28;20062;-73
2023/03/19 01:39:00;;;;;;;5.03;3.50;;;;;;;8.81;100.00;101008.91;4918951;28;20051;-72
2023/03/19 01:41:26;;;;;;;5.68;3.33;;;;;;;8.82;100.00;101009.75;4920192;28;20391;-72
2023/03/19 01:43:52;;;;;;;7.25;3.88;;;;;;;8.82;100.00;101002.72;4946225;28;20569;-72
2023/03/19 01:46:28;;;;;;;5.25;3.45;;;;;;;8.81;100.00;100997.47;4945433;28;20495;-73
2023/03/19 01:48:58;;;;;;;6.40;3.60;;;;;;;8.79;100.00;100991.41;4930910;28;20050;-72
2023/03/19 01:51:27;;;;;;;4.53;3.10;;;;;;;8.78;100.00;100995.81;4934231;28;20798;-72
2023/03/19 01:53:56;;;;;;;5.13;2.95;;;;;;;8.77;100.00;100996.72;4943863;28;20043;-72
2023/03/19 01:56:28;;;;;;;4.38;3.00;;;;;;;8.76;100.00;101000.28;4935631;28;20320;-72
2023/03/19 01:58:56;;;;;;;6.13;3.45;;;;;;;8.77;100.00;100998.53;4935127;28;20034;-73
2023/03/19 02:01:22;;;;;;;4.60;3.20;;;;;;;8.77;100.00;101002.00;4916339;28;20051;-72
2023/03/19 02:03:49;;;;;;;5.55;3.10;;;;;;;8.76;100.00;100996.81;4931381;28;20134;-73
2023/03/19 02:06:16;;;;;;;5.47;3.45;;;;;;;8.76;100.00;101005.56;4916708;28;21210;-73
2023/03/19 02:08:42;;;;;;;6.55;3.92;;;;;;;8.77;100.00;101006.44;4915881;28;20039;-73
2023/03/19 02:11:08;;;;;;;8.13;4.57;;;;;;;8.78;100.00;101008.16;4945026;28;20078;-73
2023/03/19 02:13:34;;;;;;;7.95;4.78;;;;;;;8.78;100.00;101003.72;4943041;28;20050;-73
2023/03/19 02:16:00;;;;;;;10.15;5.85;;;;;;;8.80;100.00;101004.56;4917598;28;20042;-73
2023/03/19 02:18:26;;;;;;;10.60;5.60;;;;;;;8.81;100.00;101003.63;4944334;28;20055;-73
2023/03/19 02:21:03;;;;;;;10.60;5.82;;;;;;;8.83;100.00;100999.16;4929737;28;20046;-73
2023/03/19 02:23:34;;;;;;;13.90;7.55;;;;;;;8.83;100.00;101009.72;4943492;28;20513;-73
2023/03/19 02:26:07;;;;;;;13.13;7.13;;;;;;;8.85;100.00;101004.38;4927364;28;20062;-74
2023/03/19 02:28:34;;;;;;;13.50;8.02;;;;;;;8.86;100.00;100995.53;4944963;28;20358;-72
2023/03/19 02:31:00;;;;;;;13.30;7.45;;;;;;;8.88;100.00;101003.41;4929016;28;20759;-72
2023/03/19 02:33:26;;;;;;;14.45;7.97;;;;;;;8.87;100.00;101001.69;4929118;28;20036;-72
2023/03/19 02:35:52;;;;;;;17.08;8.65;;;;;;;8.87;100.00;100991.97;4931683;28;20082;-72
2023/03/19 02:38:21;;;;;;;17.15;8.80;;;;;;;8.85;100.00;100996.47;4937243;28;20081;-73
2023/03/19 02:41:00;;;;;;;17.13;8.32;;;;;;;8.85;100.00;100999.09;4945092;28;20043;-73
2023/03/19 02:43:33;;;;;;;19.85;9.05;;;;;;;8.85;100.00;100992.94;4944075;28;20043;-73
2023/03/19 02:46:00;;;;;;;17.75;8.50;;;;;;;8.83;100.00;100993.03;4928956;28;20491;-73
2023/03/19 02:48:25;;;;;;;16.25;9.02;;;;;;;8.82;100.00;101000.06;4928131;28;20055;-73
2023/03/19 02:50:51;;;;;;;15.55;8.82;;;;;;;8.83;100.00;101001.78;4934526;28;20054;-73
2023/03/19 02:53:17;;;;;;;17.00;9.05;;;;;;;8.82;100.00;101004.47;4941992;28;20079;-73
2023/03/19 02:55:43;;;;;;;16.83;9.20;;;;;;;8.82;100.00;101008.00;4928610;28;20137;-74
2023/03/19 02:58:08;;;;;;;13.73;8.07;;;;;;;8.82;100.00;101009.75;4928515;28;20055;-73
2023/03/19 03:00:34;;;;;;;17.45;8.55;;;;;;;8.82;100.00;101029.13;4945299;28;20043;-73
2023/03/19 03:03:00;;;;;;;14.75;8.32;;;;;;;8.81;100.00;101019.47;4944243;28;20522;-73
2023/03/19 03:05:26;;;;;;;15.63;8.15;;;;;;;8.80;100.00;101028.31;4948731;28;20153;-73
2023/03/19 03:07:52;;;;;;;12.93;7.65;;;;;;;8.79;100.00;101026.59;4944606;28;20042;-74
2023/03/19 03:10:18;;;;;;;14.98;7.95;;;;;;;8.78;100.00;101035.41;4946985;28;20104;-73
2023/03/19 03:12:43;;;;;;;13.38;7.15;;;;;;;8.78;100.00;101029.28;4946190;28;20088;-74
2023/03/19 03:15:09;;;;;;;11.32;7.10;;;;;;;8.77;100.00;101028.41;4943669;28;21061;-73
2023/03/19 03:17:39;;;;;;;14.40;7.88;;;;;;;8.77;100.00;101024.94;4945333;28;20138;-73
2023/03/19 03:20:05;;;;;;;14.27;7.10;;;;;;;8.76;100.00;101031.97;4943449;28;20047;-73
2023/03/19 03:22:31;;;;;;;12.30;7.50;;;;;;;8.75;100.00;101032.00;4945464;28;21175;-73
2023/03/19 03:24:57;;;;;;;11.63;6.93;;;;;;;8.74;100.00;101031.16;4946150;28;20046;-73
2023/03/19 03:27:23;;;;;;;14.20;8.00;;;;;;;8.73;100.00;101024.16;4945289;28;20047;-72
2023/03/19 03:29:49;;;;;;;14.50;7.95;;;;;;;8.73;100.00;101033.84;4944193;28;20400;-71
2023/03/19 03:32:14;;;;;;;13.45;7.50;;;;;;;8.73;100.00;101025.94;4945070;28;20604;-72
2023/03/19 03:34:40;;;;;;;12.98;7.60;;;;;;;8.72;100.00;101026.84;4945470;28;20670;-72
2023/03/19 03:37:06;;;;;;;15.48;8.02;;;;;;;8.72;100.00;101027.69;4942646;28;20442;-74
2023/03/19 03:39:31;;;;;;;13.40;7.65;;;;;;;8.72;100.00;101032.97;4943583;28;20043;-72
2023/03/19 03:41:57;;;;;;;13.25;7.50;;;;;;;8.74;100.00;101038.22;4932661;28;20059;-72
2023/03/19 03:44:22;;;;;;;12.38;7.68;;;;;;;8.73;100.00;101037.38;4932422;28;20285;-72
2023/03/19 03:46:48;;;;;;;13.43;8.05;;;;;;;8.73;100.00;101040.00;4942419;28;20070;-72
2023/03/19 03:49:14;;;;;;;11.50;7.50;;;;;;;8.74;100.00;101041.72;4944662;28;20074;-72
2023/03/19 03:51:40;;;;;;;13.38;7.32;;;;;;;8.74;100.00;101039.09;4944987;28;20134;-72
2023/03/19 03:54:14;;;;;;;12.48;7.78;;;;;;;8.72;100.00;101040.91;4916410;28;20046;-72
2023/03/19 03:56:39;;;;;;;14.93;8.38;;;;;;;8.71;100.00;101040.97;4944526;28;20498;-72
2023/03/19 03:59:06;;;;;;;15.90;8.10;;;;;;;8.71;100.00;101036.53;4931761;28;20054;-72
2023/03/19 04:01:32;;;;;;;14.25;7.60;;;;;;;8.69;100.00;101041.00;4945048;28;20138;-72
2023/03/19 04:03:58;;;;;;;13.82;7.80;;;;;;;8.69;100.00;101043.66;4930566;28;20038;-72
2023/03/19 04:06:24;;;;;;;15.85;8.55;;;;;;;8.68;100.00;101039.28;4932608;28;20607;-72
2023/03/19 04:08:50;;;;;;;15.02;8.25;;;;;;;8.66;100.00;101038.50;4932454;28;20054;-73
2023/03/19 04:11:17;;;;;;;15.25;8.38;;;;;;;8.65;100.00;101037.63;4947977;28;20085;-73
2023/03/19 04:13:42;;;;;;;17.13;8.77;;;;;;;8.63;100.00;101041.22;4943127;28;20474;-74
2023/03/19 04:16:09;;;;;;;18.00;9.65;;;;;;;8.59;100.00;101047.50;4944783;28;20260;-73
2023/03/19 04:18:35;;;;;;;18.10;9.68;;;;;;;8.57;100.00;101052.88;4943957;28;20145;-74
2023/03/19 04:21:02;;;;;;;15.55;8.77;;;;;;;8.54;100.00;101047.66;4941713;28;20505;-73
2023/03/19 04:23:28;;;;;;;15.85;8.85;;;;;;;8.50;100.00;101049.50;4931539;28;20062;-73
2023/03/19 04:26:02;;;;;;;16.55;9.35;;;;;;;8.45;100.00;101043.56;4948323;28;20047;-73
2023/03/19 04:28:28;;;;;;;19.70;10.43;;;;;;;8.40;100.00;101046.31;4943584;28;20051;-73
2023/03/19 04:31:04;;;;;;;18.35;10.25;;;;;;;8.35;100.00;101045.63;4946021;28;20098;-73
2023/03/19 04:33:30;;;;;;;18.77;9.60;;;;;;;8.31;100.00;101045.75;4943411;28;20130;-73
2023/03/19 04:35:56;;;;;;;18.27;9.68;;;;;;;8.24;100.00;101047.75;4931625;28;20121;-73
2023/03/19 04:38:22;;;;;;;19.27;10.70;;;;;;;8.19;100.00;101057.56;4925228;28;20117;-73
2023/03/19 04:40:48;;;;;;;18.52;9.77;;;;;;;8.14;100.00;101060.38;4941798;28;20051;-73
2023/03/19 04:43:14;;;;;;;17.88;9.77;;;;;;;8.06;100.00;101051.84;4942850;28;20079;-73
2023/03/19 04:45:40;;;;;;;19.45;10.57;;;;;;;7.98;100.00;101058.22;4942789;28;20090;-73
2023/03/19 04:48:06;;;;;;;17.33;9.52;;;;;;;7.92;100.00;101058.41;4924111;28;20046;-73
2023/03/19 04:50:31;;;;;;;16.45;9.68;;;;;;;7.86;100.00;101061.22;4924623;28;20043;-73
2023/03/19 04:52:57;;;;;;;18.33;9.77;;;;;;;7.82;100.00;101062.22;4942681;28;20050;-73
2023/03/19 04:55:23;;;;;;;16.95;9.68;;;;;;;7.74;100.00;101067.75;4940549;28;20051;-72
2023/03/19 04:57:48;;;;;;;21.10;11.27;;;;;;;7.69;100.00;101061.75;4926902;28;20291;-73
2023/03/19 05:00:15;;;;;;;19.33;10.60;;;;;;;7.61;100.00;101061.97;4934863;28;20054;-73
2023/03/19 05:02:41;;;;;;;19.13;9.80;;;;;;;7.57;100.00;101062.97;4934282;28;21610;-73
2023/03/19 05:05:08;;;;;;;19.17;9.75;;;;;;;7.49;100.00;101063.19;4924282;28;20047;-73
2023/03/19 05:07:34;;;;;;;22.00;10.55;;;;;;;7.45;100.00;101051.88;4931475;28;20054;-73
2023/03/19 05:09:59;;;;;;;16.35;9.63;;;;;;;7.41;100.00;101065.19;4941911;28;20497;-73
2023/03/19 05:12:25;;;;;;;19.85;10.27;;;;;;;7.37;100.00;101063.53;4929746;28;20062;-73
2023/03/19 05:14:51;;;;;;;23.67;11.43;;;;;;;7.32;100.00;101061.03;4926375;28;20768;-73
2023/03/19 05:17:16;;;;;;;21.95;10.85;;;;;;;7.29;100.00;101066.38;4915440;28;20054;-73
2023/03/19 05:19:42;;;;;;;19.33;10.38;;;;;;;7.24;100.00;101071.78;4943155;28;20059;-74
2023/03/19 05:22:08;;;;;;;22.35;10.90;;;;;;;7.20;100.00;101068.38;4941475;28;20059;-74
2023/03/19 05:24:34;;;;;;;23.10;10.75;;;;;;;7.18;100.00;101075.44;4925586;28;20070;-74
2023/03/19 05:26:59;;;;;;;23.05;11.32;;;;;;;7.15;100.00;101074.69;4931794;28;20508;-74
2023/03/19 05:29:25;;;;;;;28.02;11.63;;;;;;;7.10;100.00;101072.19;4923492;28;20502;-73
2023/03/19 05:31:51;;;;;;;27.52;11.75;;;;;;;7.07;100.00;101073.13;4943118;28;21668;-74
2023/03/19 05:34:16;;;;;;;23.75;11.40;;;;;;;7.05;100.00;101080.19;4931498;28;20042;-74
2023/03/19 05:36:43;;;;;;;23.98;11.57;;;;;;;7.02;100.00;101082.03;4943892;28;20152;-73
2023/03/19 05:39:09;;;;;;;23.83;11.13;;;;;;;6.98;100.00;101086.50;4927742;28;20055;-73
2023/03/19 05:41:34;;;;;;;26.80;12.13;;;;;;;6.94;100.00;101090.16;4944116;28;20087;-73
2023/03/19 05:44:00;;;;;;;29.33;12.25;;;;;;;6.89;100.00;101085.00;4943283;28;20039;-72
2023/03/19 05:46:26;;;;;;;29.70;12.82;;;;;;;6.87;100.00;101096.47;4926566;28;20569;-72
2023/03/19 05:48:51;;;;;;;28.70;12.60;;;;;;;6.83;100.00;101089.56;4926185;28;20630;-73
2023/03/19 05:51:17;;;;;;;26.45;12.68;;;;;;;6.82;100.00;101099.22;4943000;28;20655;-72
2023/03/19 05:53:43;;;;;;;29.50;13.68;;;;;;;6.80;100.00;101103.66;4943018;28;20074;-73
2023/03/19 05:56:08;;;;;;;28.77;13.32;;;;;;;6.78;100.00;101105.47;4943106;28;20050;-72
2023/03/19 05:58:34;;;;;;;29.85;13.35;;;;;;;6.75;100.00;101102.91;4930723;28;20086;-72
2023/03/19 06:00:59;;;;;;;27.30;13.48;;;;;;;6.71;100.00;101112.63;4930602;28;21534;-73
2023/03/19 06:03:26;;;;;;;31.70;14.15;;;;;;;6.68;100.00;101115.34;4943454;28;20514;-73
2023/03/19 06:05:51;;;;;;;35.40;14.80;;;;;;;6.66;100.00;101118.00;4925922;28;20704;-73
2023/03/19 06:08:18;;;;;;;31.08;13.48;;;;;;;6.67;100.00;101116.25;4925761;28;20048;-73
2023/03/19 06:10:45;;;;;;;27.45;13.07;;;;;;;6.65;100.00;101118.06;4912055;28;20109;-73
2023/03/19 06:13:11;;;;;;;31.63;14.50;;;;;;;6.66;100.00;101130.31;4943719;28;20042;-73
2023/03/19 06:15:36;;;;;;;30.92;14.38;;;;;;;6.64;100.00;101127.72;4925744;28;20086;-73
2023/03/19 06:18:02;;;;;;;32.78;14.57;;;;;;;6.67;100.00;101132.03;4918237;28;20509;-73
2023/03/19 06:20:28;;;;;;;32.00;14.07;;;;;;;6.70;100.00;101131.09;4911193;28;20130;-73
2023/03/19 06:22:54;;;;;;;33.72;14.75;;;;;;;6.74;100.00;101136.25;4918160;28;20410;-73
2023/03/19 06:25:20;;;;;;;31.77;14.27;;;;;;;6.77;100.00;101137.94;4933771;28;20046;-73
2023/03/19 06:27:46;;;;;;;36.45;15.40;;;;;;;6.78;100.00;101142.31;4918249;28;20097;-72
2023/03/19 06:30:12;;;;;;;32.17;14.57;;;;;;;6.77;100.00;101138.78;4944669;28;20456;-73
2023/03/19 06:32:38;;;;;;;32.70;14.98;;;;;;;6.78;100.00;101150.19;4933816;28;20065;-73
2023/03/19 06:35:05;;;;;;;32.30;14.02;;;;;;;6.75;100.00;101147.66;4945372;28;20047;-73
2023/03/19 06:37:31;;;;;;;32.95;14.27;;;;;;;6.72;100.00;101148.59;4946503;28;20053;-73
2023/03/19 06:39:57;;;;;;;36.85;14.50;;;;;;;6.72;100.00;101153.84;4946367;28;20044;-73
2023/03/19 06:42:22;;;;;;;32.40;13.23;;;;;;;6.72;100.00;101167.00;4946093;28;20038;-73
2023/03/19 06:44:49;;;;;;;36.33;15.10;;;;;;;6.74;100.00;101162.56;4944634;28;20573;-72
2023/03/19 06:47:14;;;;;;;31.42;13.77;;;;;;;6.78;100.00;101160.72;4899107;28;20179;-73
2023/03/19 06:49:40;;;;;;;33.92;14.80;;;;;;;6.81;100.00;101175.59;4916783;28;20442;-73
2023/03/19 06:52:06;;;;;;;32.75;14.68;;;;;;;6.84;100.00;101171.09;4929597;28;20497;-72
2023/03/19 06:54:32;;;;;;;30.58;13.65;;;;;;;6.89;100.00;101169.25;4949369;28;20057;-73
2023/03/19 06:56:58;;;;;;;32.80;13.32;;;;;;;6.94;100.00;101177.00;4927762;28;20730;-73
2023/03/19 06:59:24;;;;;;;31.23;13.02;;;;;;;6.99;100.00;101175.13;4933845;28;20047;-73
2023/03/19 07:01:51;;;;;;;30.63;12.90;;;;;;;7.05;100.00;101180.25;4945931;28;20039;-73
2023/03/19 07:04:17;;;;;;;32.45;13.68;;;;;;;7.13;100.00;101181.81;4946376;28;20043;-73
2023/03/19 07:06:42;;;;;;;34.67;14.43;;;;;;;7.20;100.00;101186.03;4943793;28;20109;-73
2023/03/19 07:09:08;;;;;;;36.70;14.30;;;;;;;7.27;100.00;101186.72;4916636;28;20169;-73
2023/03/19 07:11:33;;;;;;;34.13;13.52;;;;;;;7.32;100.00;101198.00;4914293;28;20529;-73
2023/03/19 07:13:59;;;;;;;34.30;14.45;;;;;;;7.36;100.00;101191.75;4944329;28;20050;-73
2023/03/19 07:16:24;;;;;;;34.97;14.43;;;;;;;7.39;100.00;101199.56;4916565;28;20515;-73
2023/03/19 07:18:50;;;;;;;37.13;13.70;;;;;;;7.44;100.00;101202.94;4928590;28;20055;-73
2023/03/19 07:21:16;;;;;;;45.47;14.52;;;;;;;7.45;100.00;101199.41;4945804;28;20075;-73
2023/03/19 07:23:41;;;;;;;37.38;13.73;;;;;;;7.45;100.00;101196.78;4926448;28;20055;-73
2023/03/19 07:26:07;;;;;;;44.50;15.00;;;;;;;7.47;100.00;101202.84;4916591;28;20047;-73
2023/03/19 07:28:32;;;;;;;46.47;16.35;;;;;;;7.46;100.00;101211.66;4928549;28;20051;-73
2023/03/19 07:30:58;;;;;;;48.90;17.60;;;;;;;7.45;100.00;101211.69;4944848;28;20121;-73
2023/03/19 07:33:23;;;;;;;45.45;17.05;;;;;;;7.44;100.00;101224.03;4943703;28;20043;-73
2023/03/19 07:35:49;;;;;;;45.90;15.30;;;;;;;7.44;100.00;101224.03;4944986;28;20101;-73
2023/03/19 07:38:15;;;;;;;43.10;14.07;;;;;;;7.43;100.00;101222.31;4931223;28;20304;-73
2023/03/19 07:40:41;;;;;;;43.45;15.68;;;;;;;7.43;100.00;101230.22;4944566;28;20042;-73
2023/03/19 07:43:06;;;;;;;46.10;17.58;;;;;;;7.42;100.00;101238.16;4928229;28;20055;-73
2023/03/19 07:45:32;;;;;;;46.35;16.67;;;;;;;7.37;100.00;101238.28;4947031;28;20061;-74
2023/03/19 07:48:02;;;;;;;47.80;17.20;;;;;;;7.37;100.00;101234.75;4932164;28;20058;-73
2023/03/19 07:50:29;;;;;;;44.15;16.17;;;;;;;7.38;100.00;101240.00;4944803;28;20055;-74
2023/03/19 07:52:55;;;;;;;57.05;18.48;;;;;;;7.39;100.00;101240.84;4929339;28;20136;-74
2023/03/19 07:55:21;;;;;;;48.95;18.38;;;;;;;7.40;100.00;101237.31;4931072;28;20146;-73
2023/03/19 07:57:47;;;;;;;53.60;18.73;;;;;;;7.40;100.00;101239.97;4945740;28;20046;-74
2023/03/19 08:00:13;;;;;;;48.17;18.13;;;;;;;7.40;100.00;101246.06;4943971;28;20046;-74
2023/03/19 08:02:39;;;;;;;53.63;19.38;;;;;;;7.39;100.00;101244.34;4930953;28;20059;-73
2023/03/19 08:05:05;;;;;;;57.08;19.85;;;;;;;7.39;100.00;101241.72;4942068;28;20470;-73
2023/03/19 08:07:31;;;;;;;52.60;19.85;;;;;;;7.39;100.00;101235.56;4926236;28;20095;-73
2023/03/19 08:09:57;;;;;;;53.78;19.50;;;;;;;7.41;100.00;101250.44;4944502;28;20051;-74
2023/03/19 08:12:26;;;;;;;52.03;18.27;;;;;;;7.42;100.00;101252.16;4941682;28;20082;-73
2023/03/19 08:14:51;;;;;;;49.80;19.85;;;;;;;7.38;100.00;101250.53;4943890;28;20043;-73
2023/03/19 08:17:17;;;;;;;51.20;18.38;;;;;;;7.37;100.00;101261.97;4943231;28;20078;-73
2023/03/19 08:19:42;;;;;;;48.33;17.58;;;;;;;7.37;100.00;101261.97;4916130;28;20053;-73
2023/03/19 08:22:08;;;;;;;58.95;19.58;;;;;;;7.40;100.00;101268.94;4925371;28;20050;-73
2023/03/19 08:24:34;;;;;;;58.47;19.98;;;;;;;7.41;100.00;101266.25;4940856;28;20823;-73
2023/03/19 08:27:00;;;;;;;54.50;19.58;;;;;;;7.41;100.00;101273.28;4944342;28;20042;-73
2023/03/19 08:29:26;;;;;;;58.83;18.75;;;;;;;7.41;100.00;101276.78;4925257;28;20608;-73
2023/03/19 08:31:53;;;;;;;52.55;18.08;;;;;;;7.40;100.00;101285.59;4926455;28;20652;-73
2023/03/19 08:34:18;;;;;;;46.33;16.65;;;;;;;7.37;100.00;101284.81;4927181;28;20121;-72
2023/03/19 08:36:44;;;;;;;51.40;17.65;;;;;;;7.30;100.00;101281.47;4928413;28;20050;-72
2023/03/19 08:39:10;;;;;;;40.28;15.10;;;;;;;7.27;100.00;101294.69;4911518;28;20069;-73
2023/03/19 08:41:36;;;;;;;38.58;14.57;;;;;;;7.23;100.00;101293.06;4942405;28;21841;-73
2023/03/19 08:44:02;;;;;;;35.20;13.57;;;;;;;7.20;100.00;101294.84;4943232;28;20836;-73
2023/03/19 08:46:35;;;;;;;33.72;12.93;;;;;;;7.20;100.00;101301.91;4944347;28;20078;-73
2023/03/19 08:49:01;;;;;;;45.20;14.13;;;;;;;7.20;100.00;101305.38;4927048;28;20126;-73
2023/03/19 08:51:28;;;;;;;34.10;13.43;;;;;;;7.18;100.00;101298.41;4930860;28;20125;-73
2023/03/19 08:53:53;;;;;;;35.78;11.98;;;;;;;7.14;100.00;101300.25;4947936;28;20055;-74
2023/03/19 08:56:19;;;;;;;36.42;12.65;;;;;;;7.11;100.00;101310.88;4926827;28;20046;-73
2023/03/19 08:58:45;;;;;;;32.10;12.15;;;;;;;7.09;100.00;101317.97;4926855;28;20057;-73
2023/03/19 09:01:12;;;;;;;34.15;12.32;;;;;;;7.06;100.00;101318.88;4942376;28;20035;-73
2023/03/19 09:03:39;;;;;;;34.20;11.95;;;;;;;7.05;100.00;101318.91;4943400;28;20138;-73
2023/03/19 09:06:07;;;;;;;31.40;11.63;;;;;;;7.05;100.00;101324.19;4945670;28;20043;-72
2023/03/19 09:08:33;;;;;;;33.55;11.25;;;;;;;7.07;100.00;101325.00;4942694;28;20678;-73
2023/03/19 09:10:59;;;;;;;35.28;13.15;;;;;;;7.11;100.00;101328.44;4946982;28;20562;-72
2023/03/19 09:13:25;;;;;;;33.47;11.93;;;;;;;7.11;100.00;101331.94;4931820;28;20070;-72
2023/03/19 09:15:51;;;;;;;36.42;11.70;;;;;;;7.13;100.00;101334.56;4926431;28;20086;-73
2023/03/19 09:18:19;;;;;;;35.78;13.38;;;;;;;7.13;100.00;101335.41;4941663;28;20162;-73
2023/03/19 09:20:45;;;;;;;35.90;11.95;;;;;;;7.17;100.00;101337.06;4926454;28;20078;-73
2023/03/19 09:23:11;;;;;;;37.35;13.20;;;;;;;7.14;100.00;101331.84;4931723;28;20094;-73
2023/03/19 09:25:37;;;;;;;37.03;12.63;;;;;;;7.15;100.00;101338.00;4941103;28;20054;-74
2023/03/19 09:28:02;;;;;;;36.95;11.65;;;;;;;7.15;100.00;101346.75;4943572;28;20043;-73
2023/03/19 09:30:28;;;;;;;36.58;11.50;;;;;;;7.16;100.00;101347.63;4942965;28;20526;-73
2023/03/19 09:32:54;;;;;;;34.83;12.38;;;;;;;7.18;100.00;101354.59;4947200;28;20061;-73
2023/03/19 09:35:19;;;;;;;30.83;11.63;;;;;;;7.20;100.00;101358.06;4940824;28;20051;-73
2023/03/19 09:37:46;;;;;;;37.00;11.55;;;;;;;7.23;100.00;101354.47;4942096;28;20141;-73
2023/03/19 09:40:25;;;;;;;33.95;10.88;;;;;;;7.27;100.00;101348.25;4942432;28;20059;-74
2023/03/19 09:43:10;;;;;;;31.55;10.85;;;;;;;7.34;100.00;101354.22;4941842;28;20034;-73
2023/03/19 09:45:36;;;;;;;37.70;11.43;;;;;;;7.38;100.00;101371.72;4943671;28;20050;-73
2023/03/19 09:48:05;;;;;;;30.17;9.68;;;;;;;7.38;100.00;101362.91;4929294;28;20110;-73
2023/03/19 09:50:33;;;;;;;35.35;11.75;;;;;;;7.39;100.00;101365.53;4932409;28;20405;-73
2023/03/19 09:53:13;;;;;;;35.85;12.02;;;;;;;7.41;100.00;101376.88;4945314;28;20054;-73
2023/03/19 09:55:44;;;;;;;33.03;11.07;;;;;;;7.45;100.00;101381.19;4933985;28;20053;-73
2023/03/19 09:58:18;;;;;;;37.80;12.40;;;;;;;7.49;100.00;101376.72;4930307;28;20057;-73
2023/03/19 10:00:48;;;;;;;38.88;12.30;;;;;;;7.56;100.00;101385.31;4932275;28;20045;-73
2023/03/19 10:03:29;;;;;;;39.40;12.30;;;;;;;7.59;100.00;101385.28;4929789;28;20095;-72
2023/03/19 10:06:23;;;;;;;41.45;12.80;;;;;;;7.61;100.00;101383.44;4945267;28;20700;-74
2023/03/19 10:09:26;;;;;;;34.00;11.57;;;;;;;7.66;100.00;101389.47;4944346;28;20062;-74
2023/03/19 10:12:01;;;;;;;39.08;11.10;;;;;;;7.69;100.00;101389.41;4945328;28;20062;-74
2023/03/19 10:14:54;;;;;;;35.70;12.63;;;;;;;7.68;100.00;101395.56;4943640;28;20507;-74
2023/03/19 10:17:40;;;;;;;35.53;12.82;;;;;;;7.69;100.00;101391.19;4945490;28;20059;-74
2023/03/19 10:20:28;;;;;;;30.33;10.82;;;;;;;7.64;100.00;101393.06;4932073;28;20050;-74
2023/03/19 10:23:03;;;;;;;33.75;11.75;;;;;;;7.64;100.00;101393.94;4928869;28;20054;-73
2023/03/19 10:25:30;;;;;;;33.88;11.40;;;;;;;7.69;100.00;101386.75;4933644;28;20494;-73
2023/03/19 10:28:00;;;;;;;29.20;10.70;;;;;;;7.72;100.00;101391.97;4926968;28;20051;-72
2023/03/19 10:30:27;;;;;;;32.42;10.85;;;;;;;7.73;100.00;101388.44;4933428;28;20079;-73
2023/03/19 10:33:06;;;;;;;27.00;10.38;;;;;;;7.75;100.00;101393.66;4933887;28;20043;-72
2023/03/19 10:35:44;;;;;;;28.65;10.70;;;;;;;7.76;100.00;101392.75;4929107;28;20066;-73
2023/03/19 10:38:24;;;;;;;25.85;10.73;;;;;;;7.81;100.00;101397.91;4934290;28;20142;-73
2023/03/19 10:41:10;;;;;;;25.98;11.43;;;;;;;7.84;100.00;101400.50;4944296;28;20506;-72
2023/03/19 10:43:36;;;;;;;21.38;10.38;;;;;;;7.84;100.00;101401.34;4932892;28;20061;-73
2023/03/19 10:46:02;;;;;;;21.65;10.00;;;;;;;7.83;100.00;101398.72;4932106;28;21526;-72
2023/03/19 10:48:29;;;;;;;20.08;9.57;;;;;;;7.83;100.00;101394.34;4945853;28;20126;-73
2023/03/19 10:51:00;;;;;;;22.55;9.15;;;;;;;7.86;100.00;101410.06;4944506;28;20052;-72
2023/03/19 10:53:34;;;;;;;24.52;9.70;;;;;;;7.90;100.00;101410.84;4944771;28;20065;-73
2023/03/19 10:56:09;;;;;;;18.92;9.13;;;;;;;7.87;100.00;101416.22;4917416;28;20054;-73
2023/03/19 10:58:35;;;;;;;19.02;9.05;;;;;;;7.85;100.00;101412.75;4919923;28;21655;-72
2023/03/19 11:01:11;;;;;;;23.70;9.48;;;;;;;7.85;100.00;101415.41;4944924;28;20066;-73
2023/03/19 11:03:39;;;;;;;22.58;9.75;;;;;;;7.83;100.00;101415.44;4925940;28;20047;-73
2023/03/19 11:06:17;;;;;;;29.52;11.07;;;;;;;7.87;100.00;101424.13;4928017;28;20085;-73
2023/03/19 11:08:59;;;;;;;26.15;11.07;;;;;;;7.91;100.00;101417.00;4945225;28;20533;-73
2023/03/19 11:11:25;;;;;;;38.65;14.43;;;;;;;7.93;100.00;101421.34;4933259;28;20426;-73
2023/03/19 11:13:51;;;;;;;24.70;10.40;;;;;;;7.91;100.00;101424.91;4942004;28;20038;-73
2023/03/19 11:16:17;;;;;;;24.38;9.88;;;;;;;7.91;100.00;101427.56;4917490;28;20133;-73